Sao Goncalo dos Campos, Brazil
Current Conditions -  °F | °C
As of 6:00 AM on Wednesday 26 Nov 2014 (Local Time) from SBSV Reporting Station
Scattered Clouds Scattered Clouds  
Wind Chill: 75°   Ceiling: Unl
Heat Index: 75°   Visibility: 6mi
Dew Point: 68°   Wind: 3mph
Humidity: 78%   Direction: 360°N
Pressure: 29.91"   Gusts: NA
Location:  12.43°S, 38.97°W
Report Text: SBSV 260900Z 36003KT 9999 SCT017 24/20 Q1013
Loading
Personal Weather Stations






























Interactive Weather Map New forecast layout! Learn more

10-Day Weather Forecast

Advertisements
Track Severe Weather on mobile